Time;durP1;ratioP1;P1;durP2;ratioP2;P2;SDS_P1;SDS_P2;PMS_P1;PMS_P2;Temp;Humidity;BMP_temperature;BMP_pressure;BME280_temperature;BME280_humidity;BME280_pressure;Samples;Min_cycle;Max_cycle;Signal;HPM_P1;HPM_P2
2021/08/07 00:01:24;;;;;;;2.53;1.10;;;22.90;99.90;;;;;;5031161;28;20064;-67
2021/08/07 00:03:52;;;;;;;2.10;0.93;;;22.80;99.90;;;;;;5030762;28;20018;-68
2021/08/07 00:06:18;;;;;;;3.67;1.35;;;22.80;99.90;;;;;;5031010;28;20017;-67
2021/08/07 00:08:43;;;;;;;1.27;0.98;;;22.80;99.90;;;;;;5031025;28;20082;-67
2021/08/07 00:11:09;;;;;;;2.53;1.00;;;22.80;99.90;;;;;;5031261;28;20037;-69
2021/08/07 00:13:35;;;;;;;2.65;1.20;;;22.80;99.90;;;;;;5031014;28;20024;-68
2021/08/07 00:16:00;;;;;;;2.33;1.00;;;22.80;99.90;;;;;;5031015;28;20124;-68
2021/08/07 00:18:26;;;;;;;2.78;0.95;;;22.80;99.90;;;;;;5031708;28;20022;-69
2021/08/07 00:20:52;;;;;;;2.58;1.40;;;22.80;99.90;;;;;;5031465;28;20109;-70
2021/08/07 00:23:17;;;;;;;2.40;1.10;;;22.80;99.90;;;;;;5031146;28;20026;-69
2021/08/07 00:25:43;;;;;;;1.88;0.98;;;22.70;99.90;;;;;;5030557;28;20029;-69
2021/08/07 00:28:09;;;;;;;2.92;1.13;;;22.70;99.90;;;;;;5031053;28;20021;-69
2021/08/07 00:30:34;;;;;;;2.42;1.08;;;22.70;99.90;;;;;;5030827;28;20461;-68
2021/08/07 00:33:01;;;;;;;3.03;0.93;;;22.70;99.90;;;;;;5030008;28;20062;-67
2021/08/07 00:35:27;;;;;;;2.97;1.08;;;22.70;99.90;;;;;;5031195;28;20029;-68
2021/08/07 00:37:53;;;;;;;2.67;1.00;;;22.70;99.90;;;;;;5031345;28;20500;-67
2021/08/07 00:40:19;;;;;;;3.08;1.25;;;22.70;99.90;;;;;;5031001;28;20033;-67
2021/08/07 00:42:45;;;;;;;2.53;0.90;;;22.70;99.90;;;;;;5030793;28;20022;-69
2021/08/07 00:45:11;;;;;;;2.75;1.13;;;22.70;99.90;;;;;;5030923;28;20064;-68
2021/08/07 00:47:36;;;;;;;2.28;1.00;;;22.70;99.90;;;;;;5030607;28;20029;-67
2021/08/07 00:50:04;;;;;;;1.67;0.80;;;22.70;99.90;;;;;;5030870;28;20045;-67
2021/08/07 00:52:29;;;;;;;1.90;0.98;;;22.70;99.90;;;;;;5030590;28;20036;-68
2021/08/07 00:54:55;;;;;;;1.75;0.90;;;22.60;99.90;;;;;;5031084;28;20138;-68
2021/08/07 00:57:21;;;;;;;2.28;0.75;;;22.60;99.90;;;;;;5030865;28;20057;-68
2021/08/07 00:59:47;;;;;;;2.10;1.17;;;22.60;99.90;;;;;;5030516;28;20033;-68
2021/08/07 01:02:18;;;;;;;2.40;1.00;;;22.60;99.90;;;;;;5030163;28;20029;-67
2021/08/07 01:05:05;;;;;;;2.03;1.10;;;22.60;99.90;;;;;;5030649;28;20038;-69
2021/08/07 01:07:52;;;;;;;2.13;0.90;;;22.60;99.90;;;;;;5034046;28;20107;-69
2021/08/07 01:10:27;;;;;;;4.45;0.93;;;22.60;99.90;;;;;;5034285;28;20488;-70
2021/08/07 01:13:07;;;;;;;2.03;1.02;;;22.60;99.90;;;;;;5034579;28;20036;-69
2021/08/07 01:15:38;;;;;;;2.05;0.90;;;22.60;99.90;;;;;;5033479;28;20041;-70
2021/08/07 01:18:08;;;;;;;1.67;1.00;;;22.50;99.90;;;;;;5034025;28;20029;-69
2021/08/07 01:20:42;;;;;;;1.83;1.05;;;22.60;99.90;;;;;;5033916;28;20021;-69
2021/08/07 01:23:22;;;;;;;1.88;0.80;;;22.50;99.90;;;;;;5034223;28;20033;-70
2021/08/07 01:26:02;;;;;;;2.22;0.93;;;22.50;99.90;;;;;;5034028;28;20026;-71
2021/08/07 01:28:33;;;;;;;2.53;0.80;;;22.50;99.90;;;;;;5033677;28;20461;-70
2021/08/07 01:31:01;;;;;;;2.42;1.05;;;22.50;99.90;;;;;;5033839;28;20117;-70
2021/08/07 01:33:27;;;;;;;1.50;0.82;;;22.50;99.90;;;;;;5034223;28;20028;-69
2021/08/07 01:35:54;;;;;;;2.60;1.02;;;22.50;99.90;;;;;;5016406;28;20045;-70
2021/08/07 01:38:20;;;;;;;2.88;0.90;;;22.50;99.90;;;;;;5033824;28;20034;-69
2021/08/07 01:40:46;;;;;;;2.45;1.00;;;22.50;99.90;;;;;;5033485;28;20021;-69
2021/08/07 01:43:12;;;;;;;1.85;0.73;;;22.50;99.90;;;;;;5033600;28;20026;-67
2021/08/07 01:45:38;;;;;;;1.70;0.75;;;22.50;99.90;;;;;;5032948;28;20394;-69
2021/08/07 01:48:25;;;;;;;3.70;0.75;;;22.50;99.90;;;;;;5033454;28;20076;-67
2021/08/07 01:51:08;;;;;;;3.00;0.88;;;22.40;99.90;;;;;;5033234;28;20026;-69
2021/08/07 01:53:35;;;;;;;2.22;0.82;;;22.40;99.90;;;;;;5033190;28;20033;-68
2021/08/07 01:56:11;;;;;;;2.35;0.90;;;22.40;99.90;;;;;;5032941;28;20121;-67
2021/08/07 01:58:41;;;;;;;1.88;0.80;;;22.40;99.90;;;;;;5033230;28;20018;-67
2021/08/07 02:01:07;;;;;;;2.90;0.75;;;22.40;99.90;;;;;;5033322;28;20117;-70
2021/08/07 02:03:34;;;;;;;2.97;0.90;;;22.40;99.90;;;;;;5033211;28;20056;-71
2021/08/07 02:06:01;;;;;;;2.42;0.80;;;22.40;99.90;;;;;;5033474;28;20169;-71
2021/08/07 02:08:26;;;;;;;1.48;0.57;;;22.40;99.90;;;;;;5033346;28;20029;-70
2021/08/07 02:10:53;;;;;;;2.22;0.88;;;22.40;99.90;;;;;;5033588;28;20474;-71
2021/08/07 02:13:21;;;;;;;1.85;0.85;;;22.40;99.90;;;;;;5033422;28;20385;-70
2021/08/07 02:15:48;;;;;;;1.55;0.80;;;22.30;99.90;;;;;;5032386;28;20447;-71
2021/08/07 02:18:20;;;;;;;1.98;0.73;;;22.40;99.90;;;;;;5032089;28;20021;-70
2021/08/07 02:20:46;;;;;;;1.67;0.75;;;22.30;99.90;;;;;;5032784;28;20055;-71
2021/08/07 02:23:16;;;;;;;1.77;0.90;;;22.30;99.90;;;;;;5032947;28;20025;-69
2021/08/07 02:25:44;;;;;;;1.33;0.70;;;22.30;99.90;;;;;;5032907;28;20033;-71
2021/08/07 02:28:11;;;;;;;1.98;0.98;;;22.30;99.90;;;;;;5032927;28;20104;-69
2021/08/07 02:30:41;;;;;;;0.93;0.70;;;22.30;99.90;;;;;;5014660;28;20033;-69
2021/08/07 02:33:08;;;;;;;1.85;0.90;;;22.30;99.90;;;;;;5032733;28;20029;-66
2021/08/07 02:35:35;;;;;;;1.17;0.63;;;22.30;99.90;;;;;;5032108;28;20037;-66
2021/08/07 02:38:02;;;;;;;1.63;0.70;;;22.30;99.90;;;;;;5032529;28;20136;-69
2021/08/07 02:40:29;;;;;;;1.95;0.60;;;22.30;99.90;;;;;;5032113;28;20092;-69
2021/08/07 02:42:56;;;;;;;2.08;0.85;;;22.30;99.90;;;;;;5032801;28;20030;-69
2021/08/07 02:45:22;;;;;;;2.67;0.90;;;22.30;99.90;;;;;;5032342;28;20091;-69
2021/08/07 02:47:49;;;;;;;2.08;0.80;;;22.30;99.90;;;;;;5032066;28;20026;-69
2021/08/07 02:50:15;;;;;;;1.70;0.70;;;22.30;99.90;;;;;;5032398;28;20033;-68
2021/08/07 02:52:41;;;;;;;0.90;0.70;;;22.30;99.90;;;;;;5032244;28;20503;-70
2021/08/07 02:55:07;;;;;;;1.25;0.50;;;22.30;99.90;;;;;;5032363;28;20116;-69
2021/08/07 02:57:33;;;;;;;2.80;0.70;;;22.20;99.90;;;;;;5032082;28;20026;-69
2021/08/07 02:59:59;;;;;;;1.98;0.80;;;22.20;99.90;;;;;;5032329;28;20436;-69
2021/08/07 03:02:25;;;;;;;1.33;0.68;;;22.20;99.90;;;;;;5032305;28;20033;-69
2021/08/07 03:04:51;;;;;;;1.20;0.68;;;22.20;99.90;;;;;;5031792;28;20025;-69
2021/08/07 03:07:17;;;;;;;1.48;0.70;;;22.20;99.90;;;;;;5032196;28;20528;-69
2021/08/07 03:09:43;;;;;;;0.80;0.50;;;22.20;99.90;;;;;;5031841;28;20036;-70
2021/08/07 03:12:08;;;;;;;3.05;0.80;;;22.20;99.90;;;;;;5032065;28;20472;-68
2021/08/07 03:14:34;;;;;;;1.85;0.88;;;22.20;99.90;;;;;;5031371;28;20048;-66
2021/08/07 03:17:00;;;;;;;1.58;0.80;;;22.20;99.90;;;;;;5031994;28;20473;-69
2021/08/07 03:19:25;;;;;;;1.23;0.70;;;22.20;99.90;;;;;;5032287;28;20037;-69
2021/08/07 03:21:51;;;;;;;2.25;0.80;;;22.20;99.90;;;;;;5031645;28;20030;-70
2021/08/07 03:24:17;;;;;;;1.30;0.60;;;22.20;99.90;;;;;;5032059;28;20539;-69
2021/08/07 03:26:42;;;;;;;2.15;0.70;;;22.20;99.90;;;;;;5030468;28;20036;-69
2021/08/07 03:29:08;;;;;;;1.35;0.45;;;22.20;99.90;;;;;;5013942;28;20373;-69
2021/08/07 03:31:34;;;;;;;2.40;0.63;;;22.20;99.90;;;;;;5031447;28;20049;-69
2021/08/07 03:33:59;;;;;;;1.83;0.75;;;22.20;99.90;;;;;;5031655;28;20037;-68
2021/08/07 03:36:25;;;;;;;1.90;0.70;;;22.20;99.90;;;;;;5031455;28;20034;-68
2021/08/07 03:38:51;;;;;;;1.45;0.60;;;22.20;99.90;;;;;;5031381;28;20037;-68
2021/08/07 03:41:16;;;;;;;1.35;0.60;;;22.20;99.90;;;;;;5031510;28;20477;-67
2021/08/07 03:43:42;;;;;;;1.60;0.70;;;22.10;99.90;;;;;;5031314;28;20076;-68
2021/08/07 03:46:08;;;;;;;2.55;0.80;;;22.10;99.90;;;;;;5031167;28;20029;-67
2021/08/07 03:48:33;;;;;;;1.58;0.60;;;22.10;99.90;;;;;;5031106;28;20120;-68
2021/08/07 03:50:59;;;;;;;2.78;0.82;;;22.10;99.90;;;;;;5031347;28;20366;-68
2021/08/07 03:53:24;;;;;;;1.45;0.80;;;22.10;99.90;;;;;;5031941;28;20037;-68
2021/08/07 03:55:50;;;;;;;2.30;0.90;;;22.10;99.90;;;;;;5031046;28;20038;-67
2021/08/07 03:58:16;;;;;;;1.65;0.80;;;22.10;99.90;;;;;;5031502;28;20033;-68
2021/08/07 04:00:41;;;;;;;1.75;0.65;;;22.10;99.90;;;;;;5031125;28;20029;-67
2021/08/07 04:03:07;;;;;;;1.70;0.70;;;22.10;99.90;;;;;;5031303;28;20420;-68
2021/08/07 04:05:34;;;;;;;3.15;1.13;;;22.10;99.90;;;;;;5030992;28;20385;-67
2021/08/07 04:08:10;;;;;;;2.22;0.88;;;22.10;99.90;;;;;;5031351;28;20028;-67
2021/08/07 04:10:37;;;;;;;2.20;0.70;;;22.00;99.90;;;;;;5031004;28;20030;-67
2021/08/07 04:13:04;;;;;;;1.58;0.70;;;22.10;99.90;;;;;;5013701;28;20068;-68
2021/08/07 04:15:29;;;;;;;1.90;0.75;;;22.10;99.90;;;;;;5013185;28;20041;-67
2021/08/07 04:17:55;;;;;;;3.17;1.20;;;22.00;99.90;;;;;;5031225;28;20104;-68
2021/08/07 04:20:21;;;;;;;1.65;0.80;;;22.00;99.90;;;;;;5031243;28;20470;-69
2021/08/07 04:22:47;;;;;;;1.70;0.68;;;22.00;99.90;;;;;;5030956;28;20401;-67
2021/08/07 04:25:14;;;;;;;1.75;0.80;;;22.00;99.90;;;;;;5031055;28;20021;-68
2021/08/07 04:27:40;;;;;;;1.55;0.80;;;22.00;99.90;;;;;;5030683;28;20108;-68
2021/08/07 04:30:08;;;;;;;1.65;0.70;;;22.00;99.90;;;;;;5030678;28;20504;-67
2021/08/07 04:32:35;;;;;;;1.98;0.82;;;22.00;99.90;;;;;;5029911;28;20033;-68
2021/08/07 04:35:00;;;;;;;2.28;0.70;;;22.00;99.90;;;;;;5030977;28;20051;-69
2021/08/07 04:37:26;;;;;;;1.70;0.70;;;22.00;99.90;;;;;;5031381;28;20184;-68
2021/08/07 04:39:52;;;;;;;1.65;0.75;;;22.00;99.90;;;;;;5031107;28;20030;-68
2021/08/07 04:42:17;;;;;;;2.85;0.90;;;22.00;99.90;;;;;;5034705;28;20021;-68
2021/08/07 04:44:43;;;;;;;2.38;1.00;;;22.00;99.90;;;;;;5034175;28;20026;-67
2021/08/07 04:47:09;;;;;;;2.55;0.85;;;22.00;99.90;;;;;;5034637;28;20048;-68
2021/08/07 04:49:35;;;;;;;1.92;0.75;;;22.00;99.90;;;;;;5034536;28;20497;-67
2021/08/07 04:52:01;;;;;;;1.48;0.70;;;22.10;99.90;;;;;;5034742;28;20029;-67
2021/08/07 04:54:27;;;;;;;1.00;0.65;;;22.10;99.90;;;;;;5034765;28;20029;-68
2021/08/07 04:56:53;;;;;;;1.45;0.60;;;22.10;99.90;;;;;;5034220;28;20056;-67
2021/08/07 04:59:18;;;;;;;2.38;0.70;;;22.10;99.90;;;;;;5034507;28;20377;-68
2021/08/07 05:01:44;;;;;;;2.15;0.85;;;22.20;99.90;;;;;;5033505;28;20041;-67
2021/08/07 05:04:12;;;;;;;2.22;0.93;;;22.30;99.90;;;;;;5034319;28;20076;-66
2021/08/07 05:06:39;;;;;;;2.20;0.80;;;22.30;99.90;;;;;;5034007;28;20469;-67
2021/08/07 05:09:05;;;;;;;1.20;0.47;;;22.40;99.90;;;;;;5034213;28;20056;-67
2021/08/07 05:11:31;;;;;;;1.60;0.70;;;22.40;99.90;;;;;;5034083;28;20049;-67
2021/08/07 05:13:57;;;;;;;1.88;0.70;;;22.50;99.90;;;;;;5034467;28;20061;-67
2021/08/07 05:16:23;;;;;;;1.63;0.60;;;22.50;99.90;;;;;;5033821;28;20037;-68
2021/08/07 05:18:48;;;;;;;2.15;0.73;;;22.60;99.90;;;;;;5033971;28;20052;-66
2021/08/07 05:21:14;;;;;;;1.70;0.73;;;22.50;99.90;;;;;;5034168;28;20030;-70
2021/08/07 05:23:39;;;;;;;0.80;0.43;;;22.60;99.90;;;;;;5033844;28;20029;-69
2021/08/07 05:26:05;;;;;;;1.80;0.73;;;22.60;99.90;;;;;;5034012;28;20053;-69
2021/08/07 05:28:31;;;;;;;2.15;0.60;;;22.60;99.90;;;;;;5033735;28;20021;-67
2021/08/07 05:30:56;;;;;;;1.27;0.65;;;22.60;99.90;;;;;;5034308;28;20052;-68
2021/08/07 05:33:22;;;;;;;1.45;0.75;;;22.70;99.90;;;;;;5034180;28;20036;-69
2021/08/07 05:35:48;;;;;;;1.67;0.65;;;22.70;99.90;;;;;;5033396;28;20042;-67
2021/08/07 05:38:15;;;;;;;1.45;0.60;;;22.70;99.90;;;;;;5033954;28;20056;-68
2021/08/07 05:40:41;;;;;;;1.55;0.52;;;22.80;99.90;;;;;;5033187;28;20034;-68
2021/08/07 05:43:06;;;;;;;1.65;0.63;;;22.80;99.90;;;;;;5033776;28;20327;-67
2021/08/07 05:45:32;;;;;;;1.92;0.68;;;22.80;99.90;;;;;;5033052;28;20033;-67
2021/08/07 05:47:57;;;;;;;1.67;0.70;;;22.80;99.90;;;;;;5033853;28;20105;-67
2021/08/07 05:50:23;;;;;;;3.22;0.90;;;22.80;99.90;;;;;;5033706;28;20040;-69
2021/08/07 05:52:48;;;;;;;1.80;0.77;;;22.90;99.90;;;;;;5033210;28;20095;-68
2021/08/07 05:55:14;;;;;;;1.60;0.60;;;22.90;99.90;;;;;;5033555;28;20030;-69
2021/08/07 05:57:40;;;;;;;1.60;0.60;;;22.80;99.90;;;;;;5032511;28;20029;-71
2021/08/07 06:00:06;;;;;;;1.73;0.60;;;22.90;99.90;;;;;;5033619;28;20032;-71
2021/08/07 06:02:34;;;;;;;1.27;0.45;;;22.90;99.90;;;;;;5033053;28;20500;-66
2021/08/07 06:04:59;;;;;;;3.03;0.63;;;23.00;99.90;;;;;;5016084;28;20029;-69
2021/08/07 06:07:25;;;;;;;2.00;0.60;;;23.00;99.90;;;;;;5033270;28;20068;-70
2021/08/07 06:09:51;;;;;;;2.35;0.60;;;23.00;99.90;;;;;;5033026;28;20083;-69
2021/08/07 06:12:16;;;;;;;2.75;0.90;;;23.00;99.90;;;;;;5032238;28;20037;-68
2021/08/07 06:14:42;;;;;;;1.88;0.60;;;23.00;99.90;;;;;;5015139;28;20474;-69
2021/08/07 06:17:08;;;;;;;2.25;0.80;;;23.00;99.90;;;;;;5032995;28;20045;-69
2021/08/07 06:19:35;;;;;;;1.83;0.80;;;23.10;99.90;;;;;;5025787;28;20054;-67
2021/08/07 06:22:01;;;;;;;2.03;0.60;;;23.10;99.90;;;;;;5022255;28;20358;-68
2021/08/07 06:24:27;;;;;;;0.90;0.50;;;23.00;99.90;;;;;;5031945;28;20117;-68
2021/08/07 06:26:53;;;;;;;2.17;0.60;;;23.10;99.90;;;;;;5032765;28;20117;-68
2021/08/07 06:29:18;;;;;;;3.22;0.60;;;23.10;99.90;;;;;;5032867;28;20041;-67
2021/08/07 06:31:44;;;;;;;3.78;0.85;;;23.10;99.90;;;;;;5032039;28;20048;-71
2021/08/07 06:34:10;;;;;;;4.32;0.70;;;23.10;99.90;;;;;;5032896;28;20118;-67
2021/08/07 06:36:35;;;;;;;2.17;0.70;;;23.20;99.90;;;;;;5032175;28;20034;-68
2021/08/07 06:39:02;;;;;;;3.85;0.70;;;23.20;99.90;;;;;;5032501;28;20025;-68
2021/08/07 06:41:27;;;;;;;5.78;0.88;;;23.20;99.90;;;;;;5032882;28;20037;-69
2021/08/07 06:43:53;;;;;;;5.40;0.73;;;23.00;99.90;;;;;;5032380;28;20044;-67
2021/08/07 06:46:18;;;;;;;2.70;0.85;;;23.10;99.90;;;;;;5032579;28;20183;-67
2021/08/07 06:48:44;;;;;;;4.40;1.00;;;23.00;99.90;;;;;;5032134;28;20033;-68
2021/08/07 06:51:10;;;;;;;5.80;1.15;;;22.90;99.90;;;;;;5018590;28;20075;-69
2021/08/07 06:53:35;;;;;;;2.95;0.90;;;22.90;99.90;;;;;;5031129;28;20439;-67
2021/08/07 06:56:01;;;;;;;4.43;1.23;;;22.80;99.90;;;;;;5026821;28;20038;-67
2021/08/07 06:58:26;;;;;;;4.30;1.13;;;22.90;99.90;;;;;;5012903;28;20026;-66
2021/08/07 07:00:52;;;;;;;5.95;1.08;;;22.80;99.90;;;;;;5015038;28;20474;-68
2021/08/07 07:03:18;;;;;;;4.90;1.10;;;22.80;99.90;;;;;;5019468;28;20030;-67
2021/08/07 07:05:43;;;;;;;5.63;1.08;;;22.80;99.90;;;;;;5021650;28;20067;-67
2021/08/07 07:08:09;;;;;;;2.38;0.98;;;22.80;99.90;;;;;;5019936;28;20050;-68
2021/08/07 07:10:35;;;;;;;5.20;1.08;;;22.80;99.90;;;;;;5023224;28;20032;-66
2021/08/07 07:13:01;;;;;;;5.90;1.60;;;22.80;99.90;;;;;;5003485;28;20072;-66
2021/08/07 07:15:27;;;;;;;5.88;1.25;;;22.70;99.90;;;;;;5019549;28;20042;-68
2021/08/07 07:17:52;;;;;;;3.65;1.30;;;22.70;99.90;;;;;;5003540;28;20014;-68
2021/08/07 07:20:20;;;;;;;5.82;1.23;;;22.70;99.90;;;;;;5024643;28;20045;-66
2021/08/07 07:22:47;;;;;;;5.10;1.40;;;22.70;99.90;;;;;;5021303;28;20420;-69
2021/08/07 07:25:14;;;;;;;5.22;1.27;;;22.60;99.90;;;;;;5019250;28;20509;-66
2021/08/07 07:27:40;;;;;;;5.60;1.40;;;22.70;99.90;;;;;;5022546;28;20473;-67
2021/08/07 07:30:07;;;;;;;6.70;1.50;;;22.70;99.90;;;;;;5016590;28;20034;-67
2021/08/07 07:32:33;;;;;;;3.15;1.02;;;22.60;99.90;;;;;;5011756;28;20378;-69
2021/08/07 07:35:00;;;;;;;6.55;1.42;;;22.60;99.90;;;;;;5012076;28;20041;-69
2021/08/07 07:37:26;;;;;;;5.45;1.40;;;22.60;99.90;;;;;;5011999;28;20140;-68
2021/08/07 07:39:52;;;;;;;7.63;1.50;;;22.60;99.90;;;;;;5011641;28;20068;-66
2021/08/07 07:42:17;;;;;;;3.88;1.23;;;22.60;99.90;;;;;;5011607;28;20036;-67
2021/08/07 07:44:44;;;;;;;5.70;1.20;;;22.60;99.90;;;;;;5011527;28;20026;-67
2021/08/07 07:47:09;;;;;;;3.25;1.00;;;22.70;99.90;;;;;;5024978;28;20036;-76
2021/08/07 07:49:35;;;;;;;6.43;1.38;;;22.90;99.90;;;;;;5023833;28;20033;-74
2021/08/07 07:52:00;;;;;;;5.30;1.50;;;23.00;99.90;;;;;;5037784;28;20052;-74
2021/08/07 07:54:26;;;;;;;4.88;1.23;;;23.10;99.90;;;;;;5027994;28;20380;-78
2021/08/07 07:56:52;;;;;;;3.85;1.20;;;23.20;99.90;;;;;;5031638;28;20034;-76
2021/08/07 07:59:17;;;;;;;4.80;1.08;;;23.30;99.90;;;;;;5045728;28;20026;-74
2021/08/07 08:01:43;;;;;;;7.43;1.40;;;23.40;99.90;;;;;;5026369;28;20030;-73
2021/08/07 08:04:08;;;;;;;3.88;1.23;;;23.30;99.90;;;;;;5025049;28;20088;-75
2021/08/07 08:06:34;;;;;;;6.57;1.30;;;23.40;99.90;;;;;;5025093;28;20048;-76
2021/08/07 08:09:00;;;;;;;6.95;1.45;;;23.40;99.90;;;;;;5028882;28;20112;-76
2021/08/07 08:11:25;;;;;;;4.72;1.20;;;23.50;99.90;;;;;;5007944;28;20014;-76
2021/08/07 08:13:51;;;;;;;4.20;1.30;;;23.40;99.90;;;;;;5017854;28;20076;-79
2021/08/07 08:16:17;;;;;;;7.63;1.60;;;23.30;99.90;;;;;;5025004;28;20049;-76
2021/08/07 08:18:42;;;;;;;6.88;1.35;;;23.40;99.90;;;;;;5023062;28;20060;-75
2021/08/07 08:21:08;;;;;;;5.43;1.30;;;23.60;99.90;;;;;;5050823;28;20014;-78
2021/08/07 08:23:34;;;;;;;5.05;1.50;;;23.60;99.90;;;;;;5041471;28;20029;-78
2021/08/07 08:26:00;;;;;;;5.25;1.25;;;23.40;99.90;;;;;;5043493;28;20037;-79
2021/08/07 08:28:26;;;;;;;5.68;1.65;;;23.40;99.90;;;;;;5049773;28;20025;-76
2021/08/07 08:30:51;;;;;;;4.03;1.25;;;23.30;99.90;;;;;;5037644;28;20045;-75
2021/08/07 08:33:17;;;;;;;3.75;0.90;;;23.20;99.90;;;;;;5049427;28;20480;-77
2021/08/07 08:35:43;;;;;;;4.78;1.50;;;23.30;99.90;;;;;;5043030;28;20089;-76
2021/08/07 08:38:09;;;;;;;6.18;1.33;;;23.40;99.90;;;;;;5048676;28;20061;-80
2021/08/07 08:40:35;;;;;;;5.53;1.10;;;23.50;99.90;;;;;;5038321;28;20032;-78
2021/08/07 08:43:01;;;;;;;6.00;1.05;;;23.60;99.90;;;;;;5036832;28;20020;-76
2021/08/07 08:45:27;;;;;;;4.05;1.27;;;23.40;99.90;;;;;;5044578;28;20478;-78
2021/08/07 08:47:55;;;;;;;5.82;1.05;;;23.40;99.90;;;;;;5025067;28;20037;-76
2021/08/07 08:50:24;;;;;;;7.75;1.42;;;23.10;99.90;;;;;;5038717;28;20091;-76
2021/08/07 08:52:51;;;;;;;6.50;1.40;;;23.00;99.90;;;;;;5033063;28;20031;-76
2021/08/07 08:55:17;;;;;;;6.35;1.42;;;23.20;99.90;;;;;;5028744;28;20084;-78
2021/08/07 08:57:43;;;;;;;6.47;1.33;;;23.30;99.90;;;;;;5035400;28;20076;-76
2021/08/07 09:00:10;;;;;;;3.30;0.90;;;23.40;99.90;;;;;;5038799;28;20049;-76
2021/08/07 09:02:36;;;;;;;3.97;1.10;;;23.40;99.90;;;;;;5049705;28;20535;-78
2021/08/07 09:05:04;;;;;;;4.22;0.90;;;23.60;99.90;;;;;;5037331;28;20025;-77
2021/08/07 09:07:30;;;;;;;4.45;1.00;;;23.50;99.90;;;;;;5046723;28;20021;-79
2021/08/07 09:09:57;;;;;;;4.82;1.20;;;23.50;99.90;;;;;;5035933;28;20424;-78
2021/08/07 09:12:56;;;;;;;3.75;0.90;;;23.50;99.90;;;;;;5047953;28;20087;-77
2021/08/07 09:15:24;;;;;;;5.10;1.25;;;23.60;99.90;;;;;;5003493;28;20040;-77
2021/08/07 09:17:50;;;;;;;5.38;1.23;;;23.60;99.90;;;;;;5043598;28;20043;-79
2021/08/07 09:20:27;;;;;;;4.30;1.00;;;23.60;99.90;;;;;;5039993;28;20024;-79
2021/08/07 09:22:54;;;;;;;6.05;1.48;;;23.70;99.90;;;;;;5039718;28;20028;-79
2021/08/07 09:25:23;;;;;;;3.92;0.98;;;23.60;99.90;;;;;;5047501;28;20137;-78
2021/08/07 09:27:52;;;;;;;6.38;1.63;;;23.60;99.90;;;;;;5041457;28;20400;-78
2021/08/07 09:30:18;;;;;;;6.05;1.90;;;23.60;99.90;;;;;;5039336;28;20022;-80
2021/08/07 09:32:45;;;;;;;5.47;2.15;;;23.60;99.90;;;;;;5043659;28;20328;-79
2021/08/07 09:35:12;;;;;;;5.18;2.10;;;23.70;99.90;;;;;;5021654;28;20441;-78
2021/08/07 09:37:40;;;;;;;11.07;3.67;;;23.70;99.90;;;;;;5045032;28;20029;-76
2021/08/07 09:40:08;;;;;;;11.00;4.00;;;23.60;99.90;;;;;;5017633;28;20029;-78
2021/08/07 09:42:48;;;;;;;8.85;3.85;;;23.70;99.90;;;;;;5048588;28;20029;-77
2021/08/07 09:45:13;;;;;;;13.13;4.70;;;23.70;99.90;;;;;;5021926;28;20039;-77
2021/08/07 09:47:55;;;;;;;11.85;5.03;;;23.70;99.90;;;;;;5036917;28;20385;-79
2021/08/07 09:50:29;;;;;;;11.98;5.05;;;23.70;99.90;;;;;;5030075;28;20524;-80
2021/08/07 09:52:55;;;;;;;13.20;4.50;;;23.70;99.90;;;;;;5034948;28;20504;-79
2021/08/07 09:55:21;;;;;;;10.25;5.55;;;24.10;99.90;;;;;;5047193;28;20044;-78
2021/08/07 09:58:07;;;;;;;13.45;5.68;;;23.90;99.90;;;;;;5035196;28;20061;-80
2021/08/07 10:00:41;;;;;;;22.73;8.38;;;24.00;99.90;;;;;;5037428;28;20115;-80
2021/08/07 10:03:22;;;;;;;20.95;9.43;;;23.80;99.90;;;;;;5029217;28;20725;-80
2021/08/07 10:05:48;;;;;;;23.77;11.27;;;23.90;99.90;;;;;;5039335;28;20055;-79
2021/08/07 10:08:15;;;;;;;26.25;12.60;;;23.90;99.90;;;;;;5046150;28;20025;-76
2021/08/07 10:10:43;;;;;;;32.22;14.85;;;23.90;99.90;;;;;;5035544;28;20036;-78
2021/08/07 10:13:10;;;;;;;27.92;14.77;;;23.90;99.90;;;;;;5048752;28;20040;-76
2021/08/07 10:15:38;;;;;;;35.42;15.10;;;24.00;99.90;;;;;;5035538;28;20029;-78
2021/08/07 10:18:04;;;;;;;48.30;18.08;;;24.00;99.90;;;;;;5035993;28;20026;-77
2021/08/07 10:20:32;;;;;;;55.38;20.10;;;24.10;99.90;;;;;;5047805;28;20033;-78
2021/08/07 10:22:58;;;;;;;52.20;19.40;;;24.10;99.90;;;;;;5021415;28;20026;-77
2021/08/07 10:25:24;;;;;;;50.25;19.08;;;24.20;99.90;;;;;;5038372;28;20021;-79
2021/08/07 10:27:56;;;;;;;53.13;19.75;;;24.20;99.90;;;;;;5042450;28;20100;-77
2021/08/07 10:30:22;;;;;;;50.38;18.58;;;24.20;99.90;;;;;;5043930;28;20079;-77
2021/08/07 10:32:49;;;;;;;53.38;18.25;;;24.10;99.90;;;;;;5036856;28;20018;-79
2021/08/07 10:35:16;;;;;;;59.45;20.05;;;24.20;99.90;;;;;;5039641;28;20029;-78
2021/08/07 10:37:41;;;;;;;58.47;22.05;;;24.10;99.90;;;;;;5038648;28;20076;-75
2021/08/07 10:40:10;;;;;;;49.30;19.67;;;24.00;99.90;;;;;;5024387;28;20038;-79
2021/08/07 10:42:36;;;;;;;53.70;20.10;;;24.10;99.90;;;;;;5044885;28;20495;-79
2021/08/07 10:45:07;;;;;;;47.03;18.25;;;24.20;99.90;;;;;;5048203;28;20742;-78
2021/08/07 10:47:42;;;;;;;51.20;19.10;;;24.00;99.90;;;;;;5039153;28;20024;-77
2021/08/07 10:50:27;;;;;;;50.38;19.00;;;24.00;99.90;;;;;;5033723;28;20025;-76
2021/08/07 10:52:58;;;;;;;49.05;18.02;;;23.90;99.90;;;;;;5048008;28;20017;-79
2021/08/07 10:55:49;;;;;;;48.45;16.75;;;23.90;99.90;;;;;;5037901;28;20477;-77
2021/08/07 10:58:44;;;;;;;47.30;16.92;;;24.10;99.90;;;;;;5038632;28;20491;-77
2021/08/07 11:01:25;;;;;;;38.53;15.40;;;24.10;99.90;;;;;;5020502;28;20025;-80
2021/08/07 11:04:02;;;;;;;40.92;14.43;;;24.00;99.90;;;;;;5041546;28;20815;-78
2021/08/07 11:06:43;;;;;;;35.03;13.85;;;23.90;99.90;;;;;;5038827;28;20041;-75
2021/08/07 11:09:17;;;;;;;39.67;14.20;;;24.20;99.90;;;;;;5021148;28;20481;-80
2021/08/07 11:11:43;;;;;;;32.53;12.57;;;24.20;99.90;;;;;;5034361;28;20029;-82
2021/08/07 11:14:28;;;;;;;32.28;12.20;;;24.30;99.90;;;;;;5034944;28;20041;-81
2021/08/07 11:17:05;;;;;;;22.92;8.32;;;24.40;99.90;;;;;;5036847;28;20056;-76
2021/08/07 11:20:13;;;;;;;15.48;5.28;;;24.30;99.90;;;;;;5044192;28;20045;-76
2021/08/07 11:22:41;;;;;;;15.20;6.53;;;24.60;99.90;;;;;;5021944;28;20038;-80
2021/08/07 11:25:17;;;;;;;17.30;7.18;;;24.40;99.90;;;;;;5022098;28;20079;-81
2021/08/07 11:27:46;;;;;;;14.30;4.93;;;24.30;99.90;;;;;;5023858;28;20041;-79
2021/08/07 11:30:17;;;;;;;10.02;4.78;;;24.40;99.90;;;;;;5024534;28;20026;-79
2021/08/07 11:33:06;;;;;;;14.10;5.82;;;24.20;99.90;;;;;;5027891;28;20025;-80
2021/08/07 11:35:32;;;;;;;23.15;8.18;;;24.10;99.90;;;;;;5039820;28;20037;-75
2021/08/07 11:38:13;;;;;;;23.88;8.52;;;24.10;99.90;;;;;;5028883;28;20036;-75
2021/08/07 11:40:40;;;;;;;24.05;9.50;;;23.90;99.90;;;;;;5038744;28;20355;-79
2021/08/07 11:43:18;;;;;;;25.83;9.63;;;23.90;99.90;;;;;;5047586;28;20051;-78
2021/08/07 11:46:07;;;;;;;25.73;9.13;;;23.90;99.90;;;;;;5039855;28;20071;-74
2021/08/07 11:48:37;;;;;;;22.70;9.02;;;23.90;99.90;;;;;;5016740;28;20128;-74
2021/08/07 11:51:11;;;;;;;19.70;8.52;;;23.90;99.90;;;;;;5047407;28;20029;-75
2021/08/07 11:53:39;;;;;;;20.10;8.75;;;23.90;99.90;;;;;;5039251;28;20115;-80
2021/08/07 11:56:08;;;;;;;23.48;8.85;;;23.80;99.90;;;;;;5027392;28;20398;-75
2021/08/07 11:58:45;;;;;;;24.52;9.13;;;23.90;99.90;;;;;;5018774;28;20025;-74
2021/08/07 12:01:11;;;;;;;22.73;8.88;;;23.90;99.90;;;;;;5018478;28;20104;-73
2021/08/07 12:03:41;;;;;;;19.50;8.63;;;23.80;99.90;;;;;;5033994;28;20393;-73
2021/08/07 12:06:07;;;;;;;21.67;7.93;;;23.80;99.90;;;;;;5021042;28;20040;-75
2021/08/07 12:08:34;;;;;;;18.38;7.45;;;23.90;99.90;;;;;;5046166;28;20100;-74
2021/08/07 12:11:05;;;;;;;19.60;7.00;;;23.90;99.90;;;;;;5034647;28;20029;-75
2021/08/07 12:13:34;;;;;;;19.67;7.53;;;23.90;99.90;;;;;;5043616;28;20045;-74
2021/08/07 12:16:02;;;;;;;19.48;7.80;;;23.90;99.90;;;;;;5017279;28;20501;-76
2021/08/07 12:18:42;;;;;;;18.08;6.93;;;23.90;99.90;;;;;;5045991;28;20025;-73
2021/08/07 12:21:11;;;;;;;18.85;7.72;;;23.90;99.90;;;;;;5019179;28;20021;-76
2021/08/07 12:23:46;;;;;;;17.83;6.95;;;24.00;99.90;;;;;;5042192;28;20013;-75
2021/08/07 12:26:13;;;;;;;17.30;6.88;;;24.00;99.90;;;;;;5015602;28;20104;-74
2021/08/07 12:28:39;;;;;;;15.68;6.07;;;24.10;99.90;;;;;;5004450;28;20033;-73
2021/08/07 12:31:05;;;;;;;21.00;7.03;;;24.10;99.90;;;;;;5001808;28;20489;-75
2021/08/07 12:33:41;;;;;;;15.48;6.35;;;24.00;99.90;;;;;;5021871;28;20108;-74
2021/08/07 12:36:17;;;;;;;15.43;6.15;;;24.10;99.90;;;;;;5019027;28;20038;-75
2021/08/07 12:38:45;;;;;;;20.45;6.43;;;24.10;99.90;;;;;;5043850;28;20066;-75
2021/08/07 12:41:14;;;;;;;15.95;5.70;;;24.20;99.90;;;;;;5034960;28;20021;-77
2021/08/07 12:43:40;;;;;;;13.90;5.38;;;24.10;99.90;;;;;;5041769;28;20025;-76
2021/08/07 12:46:12;;;;;;;16.15;5.57;;;24.10;99.90;;;;;;5041734;28;20021;-73
2021/08/07 12:48:46;;;;;;;12.57;5.50;;;24.10;99.90;;;;;;5033578;28;20030;-73